sensor_id;sensor_type;location;lat;lon;timestamp;temperature;humidity
67054;SHT31;53960;51.826;5.850;2023-07-31T00:01:51;16.67;91.41
67054;SHT31;53960;51.826;5.850;2023-07-31T00:04:17;16.64;91.36
67054;SHT31;53960;51.826;5.850;2023-07-31T00:06:42;16.71;91.51
67054;SHT31;53960;51.826;5.850;2023-07-31T00:09:07;16.75;91.27
67054;SHT31;53960;51.826;5.850;2023-07-31T00:11:33;16.72;91.45
67054;SHT31;53960;51.826;5.850;2023-07-31T00:13:58;16.76;91.47
67054;SHT31;53960;51.826;5.850;2023-07-31T00:16:23;16.76;91.65
67054;SHT31;53960;51.826;5.850;2023-07-31T00:18:49;16.75;91.91
67054;SHT31;53960;51.826;5.850;2023-07-31T00:21:14;16.75;92.07
67054;SHT31;53960;51.826;5.850;2023-07-31T00:23:39;16.88;92.11
67054;SHT31;53960;51.826;5.850;2023-07-31T00:26:05;16.91;92.29
67054;SHT31;53960;51.826;5.850;2023-07-31T00:28:30;16.92;92.46
67054;SHT31;53960;51.826;5.850;2023-07-31T00:30:55;16.91;92.86
67054;SHT31;53960;51.826;5.850;2023-07-31T00:33:21;16.98;92.80
67054;SHT31;53960;51.826;5.850;2023-07-31T00:35:48;17.01;92.80
67054;SHT31;53960;51.826;5.850;2023-07-31T00:38:13;17.05;92.91
67054;SHT31;53960;51.826;5.850;2023-07-31T00:40:39;17.12;92.78
67054;SHT31;53960;51.826;5.850;2023-07-31T00:43:04;17.12;92.90
67054;SHT31;53960;51.826;5.850;2023-07-31T00:45:30;17.13;92.93
67054;SHT31;53960;51.826;5.850;2023-07-31T00:47:56;17.18;92.60
67054;SHT31;53960;51.826;5.850;2023-07-31T00:50:24;17.20;92.58
67054;SHT31;53960;51.826;5.850;2023-07-31T00:52:49;17.20;92.66
67054;SHT31;53960;51.826;5.850;2023-07-31T00:55:15;17.29;91.96
67054;SHT31;53960;51.826;5.850;2023-07-31T00:57:41;17.26;91.99
67054;SHT31;53960;51.826;5.850;2023-07-31T01:00:07;17.22;92.25
67054;SHT31;53960;51.826;5.850;2023-07-31T01:02:33;17.22;92.38
67054;SHT31;53960;51.826;5.850;2023-07-31T01:04:59;17.19;92.52
67054;SHT31;53960;51.826;5.850;2023-07-31T01:07:50;17.27;91.90
67054;SHT31;53960;51.826;5.850;2023-07-31T01:10:29;17.26;92.15
67054;SHT31;53960;51.826;5.850;2023-07-31T01:12:56;17.20;92.19
67054;SHT31;53960;51.826;5.850;2023-07-31T01:15:23;17.23;92.11
67054;SHT31;53960;51.826;5.850;2023-07-31T01:17:48;17.26;92.12
67054;SHT31;53960;51.826;5.850;2023-07-31T01:20:18;17.27;91.92
67054;SHT31;53960;51.826;5.850;2023-07-31T01:29:25;17.22;91.90
67054;SHT31;53960;51.826;5.850;2023-07-31T01:31:56;17.27;91.43
67054;SHT31;53960;51.826;5.850;2023-07-31T01:34:23;17.23;91.73
67054;SHT31;53960;51.826;5.850;2023-07-31T01:36:48;17.22;91.71
67054;SHT31;53960;51.826;5.850;2023-07-31T01:39:14;17.18;92.09
67054;SHT31;53960;51.826;5.850;2023-07-31T01:41:40;17.20;91.91
67054;SHT31;53960;51.826;5.850;2023-07-31T01:44:06;17.16;92.04
67054;SHT31;53960;51.826;5.850;2023-07-31T01:46:31;17.25;91.47
67054;SHT31;53960;51.826;5.850;2023-07-31T01:48:57;17.26;91.55
67054;SHT31;53960;51.826;5.850;2023-07-31T01:51:22;17.25;91.44
67054;SHT31;53960;51.826;5.850;2023-07-31T01:53:47;17.23;91.47
67054;SHT31;53960;51.826;5.850;2023-07-31T01:56:13;17.19;91.59
67054;SHT31;53960;51.826;5.850;2023-07-31T01:58:38;17.18;91.69
67054;SHT31;53960;51.826;5.850;2023-07-31T02:01:04;17.16;91.39
67054;SHT31;53960;51.826;5.850;2023-07-31T02:03:29;17.15;91.51
67054;SHT31;53960;51.826;5.850;2023-07-31T02:05:54;17.20;91.59
67054;SHT31;53960;51.826;5.850;2023-07-31T02:08:20;17.13;91.87
67054;SHT31;53960;51.826;5.850;2023-07-31T02:10:45;17.12;91.91
67054;SHT31;53960;51.826;5.850;2023-07-31T02:13:11;17.12;92.22
67054;SHT31;53960;51.826;5.850;2023-07-31T02:15:37;17.18;91.45
67054;SHT31;53960;51.826;5.850;2023-07-31T02:18:02;17.15;91.72
67054;SHT31;53960;51.826;5.850;2023-07-31T02:20:27;17.15;91.59
67054;SHT31;53960;51.826;5.850;2023-07-31T02:22:53;17.16;91.73
67054;SHT31;53960;51.826;5.850;2023-07-31T02:25:18;17.12;91.76
67054;SHT31;53960;51.826;5.850;2023-07-31T02:27:43;17.13;91.83
67054;SHT31;53960;51.826;5.850;2023-07-31T02:30:09;17.12;91.46
67054;SHT31;53960;51.826;5.850;2023-07-31T02:32:34;17.16;91.32
67054;SHT31;53960;51.826;5.850;2023-07-31T02:35:00;17.12;91.23
67054;SHT31;53960;51.826;5.850;2023-07-31T02:37:25;17.13;91.63
67054;SHT31;53960;51.826;5.850;2023-07-31T02:39:51;17.16;91.22
67054;SHT31;53960;51.826;5.850;2023-07-31T02:42:16;17.18;91.20
67054;SHT31;53960;51.826;5.850;2023-07-31T02:44:42;17.11;91.31
67054;SHT31;53960;51.826;5.850;2023-07-31T02:47:07;17.11;91.04
67054;SHT31;53960;51.826;5.850;2023-07-31T02:49:32;17.12;90.70
67054;SHT31;53960;51.826;5.850;2023-07-31T02:51:58;17.12;90.80
67054;SHT31;53960;51.826;5.850;2023-07-31T02:54:23;17.18;90.44
67054;SHT31;53960;51.826;5.850;2023-07-31T02:56:49;17.12;90.79
67054;SHT31;53960;51.826;5.850;2023-07-31T02:59:15;17.13;90.52
67054;SHT31;53960;51.826;5.850;2023-07-31T03:01:40;17.11;90.80
67054;SHT31;53960;51.826;5.850;2023-07-31T03:04:06;17.12;90.76
67054;SHT31;53960;51.826;5.850;2023-07-31T03:06:32;17.08;90.65
67054;SHT31;53960;51.826;5.850;2023-07-31T03:08:57;17.06;90.55
67054;SHT31;53960;51.826;5.850;2023-07-31T03:11:22;17.06;90.24
67054;SHT31;53960;51.826;5.850;2023-07-31T03:13:48;17.06;90.24
67054;SHT31;53960;51.826;5.850;2023-07-31T03:16:13;17.02;90.45
67054;SHT31;53960;51.826;5.850;2023-07-31T03:18:38;17.01;90.52
67054;SHT31;53960;51.826;5.850;2023-07-31T03:21:04;17.06;90.18
67054;SHT31;53960;51.826;5.850;2023-07-31T03:23:29;17.03;90.02
67054;SHT31;53960;51.826;5.850;2023-07-31T03:25:56;17.01;90.06
67054;SHT31;53960;51.826;5.850;2023-07-31T03:28:22;16.95;90.44
67054;SHT31;53960;51.826;5.850;2023-07-31T03:30:47;17.01;89.96
67054;SHT31;53960;51.826;5.850;2023-07-31T03:33:13;16.98;89.90
67054;SHT31;53960;51.826;5.850;2023-07-31T03:35:38;17.02;89.83
67054;SHT31;53960;51.826;5.850;2023-07-31T03:38:03;17.01;89.65
67054;SHT31;53960;51.826;5.850;2023-07-31T03:40:29;17.01;89.51
67054;SHT31;53960;51.826;5.850;2023-07-31T03:42:54;16.98;89.70
67054;SHT31;53960;51.826;5.850;2023-07-31T03:45:19;17.01;89.29
67054;SHT31;53960;51.826;5.850;2023-07-31T03:47:45;16.99;89.78
67054;SHT31;53960;51.826;5.850;2023-07-31T03:50:10;17.02;89.18
67054;SHT31;53960;51.826;5.850;2023-07-31T03:52:35;17.03;89.33
67054;SHT31;53960;51.826;5.850;2023-07-31T03:55:01;16.99;89.07
67054;SHT31;53960;51.826;5.850;2023-07-31T03:57:26;17.05;88.93
67054;SHT31;53960;51.826;5.850;2023-07-31T03:59:52;16.96;89.12
67054;SHT31;53960;51.826;5.850;2023-07-31T04:02:17;16.98;88.96
67054;SHT31;53960;51.826;5.850;2023-07-31T04:04:43;16.91;89.25
67054;SHT31;53960;51.826;5.850;2023-07-31T04:07:09;16.91;89.26
67054;SHT31;53960;51.826;5.850;2023-07-31T04:09:34;16.85;89.42
67054;SHT31;53960;51.826;5.850;2023-07-31T04:11:59;16.89;89.34
67054;SHT31;53960;51.826;5.850;2023-07-31T04:14:25;16.86;89.44
67054;SHT31;53960;51.826;5.850;2023-07-31T04:16:50;16.85;89.57
67054;SHT31;53960;51.826;5.850;2023-07-31T04:19:15;16.91;89.23
67054;SHT31;53960;51.826;5.850;2023-07-31T04:21:42;16.96;88.98
67054;SHT31;53960;51.826;5.850;2023-07-31T04:24:07;16.98;88.90
67054;SHT31;53960;51.826;5.850;2023-07-31T04:26:33;16.98;88.97
67054;SHT31;53960;51.826;5.850;2023-07-31T04:28:58;16.94;89.21
67054;SHT31;53960;51.826;5.850;2023-07-31T04:31:23;16.94;89.01
67054;SHT31;53960;51.826;5.850;2023-07-31T04:33:49;16.96;88.90
67054;SHT31;53960;51.826;5.850;2023-07-31T04:36:14;16.99;88.77
67054;SHT31;53960;51.826;5.850;2023-07-31T04:38:39;17.06;88.79
67054;SHT31;53960;51.826;5.850;2023-07-31T04:41:06;17.03;88.52
67054;SHT31;53960;51.826;5.850;2023-07-31T04:43:31;17.03;88.43
67054;SHT31;53960;51.826;5.850;2023-07-31T04:45:57;17.09;88.43
67054;SHT31;53960;51.826;5.850;2023-07-31T04:48:23;17.06;88.36
67054;SHT31;53960;51.826;5.850;2023-07-31T04:50:48;17.01;88.80
67054;SHT31;53960;51.826;5.850;2023-07-31T04:53:14;17.01;88.62
67054;SHT31;53960;51.826;5.850;2023-07-31T04:55:39;17.02;88.99
67054;SHT31;53960;51.826;5.850;2023-07-31T04:58:05;17.05;88.65
67054;SHT31;53960;51.826;5.850;2023-07-31T05:00:30;17.02;89.06
67054;SHT31;53960;51.826;5.850;2023-07-31T05:02:56;17.15;88.41
67054;SHT31;53960;51.826;5.850;2023-07-31T05:05:21;17.11;88.89
67054;SHT31;53960;51.826;5.850;2023-07-31T05:07:47;17.18;88.37
67054;SHT31;53960;51.826;5.850;2023-07-31T05:10:12;17.19;88.44
67054;SHT31;53960;51.826;5.850;2023-07-31T05:12:37;17.20;88.44
67054;SHT31;53960;51.826;5.850;2023-07-31T05:15:03;17.20;88.71
67054;SHT31;53960;51.826;5.850;2023-07-31T05:17:29;17.20;88.77
67054;SHT31;53960;51.826;5.850;2023-07-31T05:19:54;17.20;88.92
67054;SHT31;53960;51.826;5.850;2023-07-31T05:22:19;17.19;89.25
67054;SHT31;53960;51.826;5.850;2023-07-31T05:24:45;17.20;89.54
67054;SHT31;53960;51.826;5.850;2023-07-31T05:27:10;17.20;89.64
67054;SHT31;53960;51.826;5.850;2023-07-31T05:29:35;17.15;90.22
67054;SHT31;53960;51.826;5.850;2023-07-31T05:32:01;17.15;90.32
67054;SHT31;53960;51.826;5.850;2023-07-31T05:34:26;17.11;90.73
67054;SHT31;53960;51.826;5.850;2023-07-31T05:36:52;17.13;90.88
67054;SHT31;53960;51.826;5.850;2023-07-31T05:39:17;17.13;91.09
67054;SHT31;53960;51.826;5.850;2023-07-31T05:41:44;17.13;91.22
67054;SHT31;53960;51.826;5.850;2023-07-31T05:44:10;17.09;91.35
67054;SHT31;53960;51.826;5.850;2023-07-31T05:46:35;17.13;91.70
67054;SHT31;53960;51.826;5.850;2023-07-31T05:49:01;17.12;91.68
67054;SHT31;53960;51.826;5.850;2023-07-31T05:51:27;17.11;91.93
67054;SHT31;53960;51.826;5.850;2023-07-31T05:53:52;17.12;92.14
67054;SHT31;53960;51.826;5.850;2023-07-31T05:56:18;17.16;92.05
67054;SHT31;53960;51.826;5.850;2023-07-31T05:58:43;17.13;92.34
67054;SHT31;53960;51.826;5.850;2023-07-31T06:01:09;17.08;92.59
67054;SHT31;53960;51.826;5.850;2023-07-31T06:03:34;17.11;92.62
67054;SHT31;53960;51.826;5.850;2023-07-31T06:05:59;17.08;92.87
67054;SHT31;53960;51.826;5.850;2023-07-31T06:08:25;17.13;93.02
67054;SHT31;53960;51.826;5.850;2023-07-31T06:10:50;17.18;92.84
67054;SHT31;53960;51.826;5.850;2023-07-31T06:13:15;17.18;92.68
67054;SHT31;53960;51.826;5.850;2023-07-31T06:15:41;17.16;92.98
67054;SHT31;53960;51.826;5.850;2023-07-31T06:18:06;17.19;92.68
67054;SHT31;53960;51.826;5.850;2023-07-31T06:20:36;17.15;92.93
67054;SHT31;53960;51.826;5.850;2023-07-31T06:23:01;17.19;92.99
67054;SHT31;53960;51.826;5.850;2023-07-31T06:25:27;17.25;92.64
67054;SHT31;53960;51.826;5.850;2023-07-31T06:27:53;17.29;92.87
67054;SHT31;53960;51.826;5.850;2023-07-31T06:30:18;17.26;92.81
67054;SHT31;53960;51.826;5.850;2023-07-31T06:32:43;17.29;92.90
67054;SHT31;53960;51.826;5.850;2023-07-31T06:35:09;17.30;92.74
67054;SHT31;53960;51.826;5.850;2023-07-31T06:37:34;17.32;92.72
67054;SHT31;53960;51.826;5.850;2023-07-31T06:39:59;17.37;92.50
67054;SHT31;53960;51.826;5.850;2023-07-31T06:42:25;17.37;92.86
67054;SHT31;53960;51.826;5.850;2023-07-31T06:44:58;17.33;92.93
67054;SHT31;53960;51.826;5.850;2023-07-31T06:47:24;17.36;93.00
67054;SHT31;53960;51.826;5.850;2023-07-31T06:49:49;17.27;93.26
67054;SHT31;53960;51.826;5.850;2023-07-31T06:52:14;17.27;93.39
67054;SHT31;53960;51.826;5.850;2023-07-31T06:54:40;17.33;93.38
67054;SHT31;53960;51.826;5.850;2023-07-31T06:57:05;17.33;93.36
67054;SHT31;53960;51.826;5.850;2023-07-31T06:59:30;17.36;93.43
67054;SHT31;53960;51.826;5.850;2023-07-31T07:01:56;17.33;93.62
67054;SHT31;53960;51.826;5.850;2023-07-31T07:04:23;17.40;93.39
67054;SHT31;53960;51.826;5.850;2023-07-31T07:06:49;17.46;93.42
67054;SHT31;53960;51.826;5.850;2023-07-31T07:09:14;17.43;93.67
67054;SHT31;53960;51.826;5.850;2023-07-31T07:11:39;17.44;93.82
67054;SHT31;53960;51.826;5.850;2023-07-31T07:14:04;17.49;93.53
67054;SHT31;53960;51.826;5.850;2023-07-31T07:16:30;17.51;93.37
67054;SHT31;53960;51.826;5.850;2023-07-31T07:18:55;17.51;93.33
67054;SHT31;53960;51.826;5.850;2023-07-31T07:21:20;17.47;93.77
67054;SHT31;53960;51.826;5.850;2023-07-31T07:23:46;17.47;93.90
67054;SHT31;53960;51.826;5.850;2023-07-31T07:26:11;17.51;93.86
67054;SHT31;53960;51.826;5.850;2023-07-31T07:28:36;17.62;93.80
67054;SHT31;53960;51.826;5.850;2023-07-31T07:31:02;17.64;93.46
67054;SHT31;53960;51.826;5.850;2023-07-31T07:33:28;17.62;93.83
67054;SHT31;53960;51.826;5.850;2023-07-31T07:35:53;17.64;93.57
67054;SHT31;53960;51.826;5.850;2023-07-31T07:38:19;17.63;93.68
67054;SHT31;53960;51.826;5.850;2023-07-31T07:40:44;17.60;93.68
67054;SHT31;53960;51.826;5.850;2023-07-31T07:43:12;17.63;93.63
67054;SHT31;53960;51.826;5.850;2023-07-31T07:45:37;17.69;93.47
67054;SHT31;53960;51.826;5.850;2023-07-31T07:48:03;17.62;93.52
67054;SHT31;53960;51.826;5.850;2023-07-31T07:50:28;17.63;93.62
67054;SHT31;53960;51.826;5.850;2023-07-31T07:52:54;17.63;93.54
67054;SHT31;53960;51.826;5.850;2023-07-31T07:55:19;17.62;93.62
67054;SHT31;53960;51.826;5.850;2023-07-31T07:57:44;17.59;93.80
67054;SHT31;53960;51.826;5.850;2023-07-31T08:00:11;17.62;93.78
67054;SHT31;53960;51.826;5.850;2023-07-31T08:02:37;17.64;93.63
67054;SHT31;53960;51.826;5.850;2023-07-31T08:05:02;17.69;93.67
67054;SHT31;53960;51.826;5.850;2023-07-31T08:07:28;17.70;93.62
67054;SHT31;53960;51.826;5.850;2023-07-31T08:09:53;17.69;93.65
67054;SHT31;53960;51.826;5.850;2023-07-31T08:12:19;17.71;93.47
67054;SHT31;53960;51.826;5.850;2023-07-31T08:14:44;17.67;93.53
67054;SHT31;53960;51.826;5.850;2023-07-31T08:17:09;17.78;93.40
67054;SHT31;53960;51.826;5.850;2023-07-31T08:19:35;17.70;93.59
67054;SHT31;53960;51.826;5.850;2023-07-31T08:22:00;17.78;93.40
67054;SHT31;53960;51.826;5.850;2023-07-31T08:24:26;17.74;93.64
67054;SHT31;53960;51.826;5.850;2023-07-31T08:26:51;17.74;93.90
67054;SHT31;53960;51.826;5.850;2023-07-31T08:29:16;17.75;93.41
67054;SHT31;53960;51.826;5.850;2023-07-31T08:31:42;17.75;93.75
67054;SHT31;53960;51.826;5.850;2023-07-31T08:34:07;17.74;93.59
67054;SHT31;53960;51.826;5.850;2023-07-31T08:36:32;17.74;93.70
67054;SHT31;53960;51.826;5.850;2023-07-31T08:38:57;17.73;93.79
67054;SHT31;53960;51.826;5.850;2023-07-31T08:41:23;17.73;93.89
67054;SHT31;53960;51.826;5.850;2023-07-31T08:43:49;17.78;93.60
67054;SHT31;53960;51.826;5.850;2023-07-31T08:46:15;17.85;93.71
67054;SHT31;53960;51.826;5.850;2023-07-31T08:48:42;17.83;93.89
67054;SHT31;53960;51.826;5.850;2023-07-31T08:51:08;17.84;93.88
67054;SHT31;53960;51.826;5.850;2023-07-31T08:53:34;17.83;93.80
67054;SHT31;53960;51.826;5.850;2023-07-31T08:55:59;17.85;93.79
67054;SHT31;53960;51.826;5.850;2023-07-31T08:58:27;17.90;93.67
67054;SHT31;53960;51.826;5.850;2023-07-31T09:00:56;17.90;93.78
67054;SHT31;53960;51.826;5.850;2023-07-31T09:03:24;17.93;93.59
67054;SHT31;53960;51.826;5.850;2023-07-31T09:05:51;17.88;93.58
67054;SHT31;53960;51.826;5.850;2023-07-31T09:08:19;17.87;93.77
67054;SHT31;53960;51.826;5.850;2023-07-31T09:10:47;17.88;93.59
67054;SHT31;53960;51.826;5.850;2023-07-31T09:13:16;17.83;93.89
67054;SHT31;53960;51.826;5.850;2023-07-31T09:15:43;17.87;93.70
67054;SHT31;53960;51.826;5.850;2023-07-31T09:18:09;17.87;93.85
67054;SHT31;53960;51.826;5.850;2023-07-31T09:20:35;17.85;93.87
67054;SHT31;53960;51.826;5.850;2023-07-31T09:23:11;17.85;93.61
67054;SHT31;53960;51.826;5.850;2023-07-31T09:25:38;17.83;93.70
67054;SHT31;53960;51.826;5.850;2023-07-31T09:28:06;17.84;93.76
67054;SHT31;53960;51.826;5.850;2023-07-31T09:30:47;17.80;93.85
67054;SHT31;53960;51.826;5.850;2023-07-31T09:33:13;17.87;93.37
67054;SHT31;53960;51.826;5.850;2023-07-31T09:35:38;17.90;93.08
67054;SHT31;53960;51.826;5.850;2023-07-31T09:38:10;17.91;92.97
67054;SHT31;53960;51.826;5.850;2023-07-31T09:40:41;17.90;93.12
67054;SHT31;53960;51.826;5.850;2023-07-31T09:43:12;17.88;93.44
67054;SHT31;53960;51.826;5.850;2023-07-31T09:45:42;17.93;93.19
67054;SHT31;53960;51.826;5.850;2023-07-31T09:48:15;17.91;93.19
67054;SHT31;53960;51.826;5.850;2023-07-31T09:50:43;17.95;93.19
67054;SHT31;53960;51.826;5.850;2023-07-31T09:53:09;18.00;93.25
67054;SHT31;53960;51.826;5.850;2023-07-31T09:55:36;18.00;93.21
67054;SHT31;53960;51.826;5.850;2023-07-31T09:58:09;18.05;92.96
67054;SHT31;53960;51.826;5.850;2023-07-31T10:00:35;18.11;92.74
67054;SHT31;53960;51.826;5.850;2023-07-31T10:03:05;18.11;92.78
67054;SHT31;53960;51.826;5.850;2023-07-31T10:05:34;18.06;92.52
67054;SHT31;53960;51.826;5.850;2023-07-31T10:08:00;18.05;92.78
67054;SHT31;53960;51.826;5.850;2023-07-31T10:10:26;18.06;92.87
67054;SHT31;53960;51.826;5.850;2023-07-31T10:12:53;18.04;93.03
67054;SHT31;53960;51.826;5.850;2023-07-31T10:15:19;18.02;93.31
67054;SHT31;53960;51.826;5.850;2023-07-31T10:17:49;18.09;92.84
67054;SHT31;53960;51.826;5.850;2023-07-31T10:20:16;18.25;92.62
67054;SHT31;53960;51.826;5.850;2023-07-31T10:22:43;18.39;92.39
67054;SHT31;53960;51.826;5.850;2023-07-31T10:25:09;18.49;91.33
67054;SHT31;53960;51.826;5.850;2023-07-31T10:27:40;18.57;91.69
67054;SHT31;53960;51.826;5.850;2023-07-31T10:30:11;18.62;91.54
67054;SHT31;53960;51.826;5.850;2023-07-31T10:32:39;18.62;91.67
67054;SHT31;53960;51.826;5.850;2023-07-31T10:35:06;18.64;91.58
67054;SHT31;53960;51.826;5.850;2023-07-31T10:37:40;18.69;91.40
67054;SHT31;53960;51.826;5.850;2023-07-31T10:40:09;18.74;91.44
67054;SHT31;53960;51.826;5.850;2023-07-31T10:45:10;18.80;91.39
67054;SHT31;53960;51.826;5.850;2023-07-31T10:47:43;18.79;91.50
67054;SHT31;53960;51.826;5.850;2023-07-31T10:50:18;18.89;91.55
67054;SHT31;53960;51.826;5.850;2023-07-31T10:52:50;18.94;90.79
67054;SHT31;53960;51.826;5.850;2023-07-31T10:55:24;18.90;91.16
67054;SHT31;53960;51.826;5.850;2023-07-31T10:57:50;18.89;90.81
67054;SHT31;53960;51.826;5.850;2023-07-31T11:00:42;18.89;90.88
67054;SHT31;53960;51.826;5.850;2023-07-31T11:03:13;18.91;90.93
67054;SHT31;53960;51.826;5.850;2023-07-31T11:08:27;18.90;90.73
67054;SHT31;53960;51.826;5.850;2023-07-31T11:16:06;18.89;91.22
67054;SHT31;53960;51.826;5.850;2023-07-31T11:18:31;18.87;91.42
67054;SHT31;53960;51.826;5.850;2023-07-31T11:20:57;18.86;91.35
67054;SHT31;53960;51.826;5.850;2023-07-31T11:23:23;18.86;91.18
67054;SHT31;53960;51.826;5.850;2023-07-31T11:25:49;18.82;90.56
67054;SHT31;53960;51.826;5.850;2023-07-31T11:28:16;18.80;91.09
67054;SHT31;53960;51.826;5.850;2023-07-31T11:30:43;18.80;90.93
67054;SHT31;53960;51.826;5.850;2023-07-31T11:33:10;18.82;90.74
67054;SHT31;53960;51.826;5.850;2023-07-31T11:35:41;18.84;90.77
67054;SHT31;53960;51.826;5.850;2023-07-31T11:38:07;18.89;90.62
67054;SHT31;53960;51.826;5.850;2023-07-31T11:40:41;18.86;90.67
67054;SHT31;53960;51.826;5.850;2023-07-31T11:43:07;18.83;90.96
67054;SHT31;53960;51.826;5.850;2023-07-31T11:45:33;18.93;90.49
67054;SHT31;53960;51.826;5.850;2023-07-31T11:48:00;18.94;90.67
67054;SHT31;53960;51.826;5.850;2023-07-31T11:50:26;18.96;90.56
67054;SHT31;53960;51.826;5.850;2023-07-31T11:52:55;18.96;90.79
67054;SHT31;53960;51.826;5.850;2023-07-31T11:55:21;18.99;90.58
67054;SHT31;53960;51.826;5.850;2023-07-31T11:57:47;19.10;90.50
67054;SHT31;53960;51.826;5.850;2023-07-31T12:00:14;19.03;90.74
67054;SHT31;53960;51.826;5.850;2023-07-31T12:02:40;19.07;90.36
67054;SHT31;53960;51.826;5.850;2023-07-31T12:05:10;19.08;90.66
67054;SHT31;53960;51.826;5.850;2023-07-31T12:07:52;19.08;90.53
67054;SHT31;53960;51.826;5.850;2023-07-31T12:10:26;19.06;91.14
67054;SHT31;53960;51.826;5.850;2023-07-31T12:13:06;19.06;91.12
67054;SHT31;53960;51.826;5.850;2023-07-31T12:15:42;19.03;91.15
67054;SHT31;53960;51.826;5.850;2023-07-31T12:18:12;18.99;91.36
67054;SHT31;53960;51.826;5.850;2023-07-31T12:20:46;18.93;91.20
67054;SHT31;53960;51.826;5.850;2023-07-31T12:23:19;18.91;91.52
67054;SHT31;53960;51.826;5.850;2023-07-31T12:26:03;18.89;91.96
67054;SHT31;53960;51.826;5.850;2023-07-31T12:28:28;18.90;91.70
67054;SHT31;53960;51.826;5.850;2023-07-31T12:30:57;18.90;91.83
67054;SHT31;53960;51.826;5.850;2023-07-31T12:33:37;18.93;91.74
67054;SHT31;53960;51.826;5.850;2023-07-31T12:36:07;18.93;91.64
67054;SHT31;53960;51.826;5.850;2023-07-31T12:38:33;18.99;91.64
67054;SHT31;53960;51.826;5.850;2023-07-31T12:40:58;18.99;91.59
67054;SHT31;53960;51.826;5.850;2023-07-31T12:43:24;19.00;91.20
67054;SHT31;53960;51.826;5.850;2023-07-31T12:45:49;19.11;91.02
67054;SHT31;53960;51.826;5.850;2023-07-31T12:48:15;19.20;91.27
67054;SHT31;53960;51.826;5.850;2023-07-31T12:50:40;19.12;91.75
67054;SHT31;53960;51.826;5.850;2023-07-31T12:53:06;19.17;91.64
67054;SHT31;53960;51.826;5.850;2023-07-31T12:55:33;19.12;91.74
67054;SHT31;53960;51.826;5.850;2023-07-31T12:58:02;19.21;91.97
67054;SHT31;53960;51.826;5.850;2023-07-31T13:00:27;19.28;91.75
67054;SHT31;53960;51.826;5.850;2023-07-31T13:02:53;19.35;91.52
67054;SHT31;53960;51.826;5.850;2023-07-31T13:05:18;19.35;91.81
67054;SHT31;53960;51.826;5.850;2023-07-31T13:07:46;19.27;91.17
67054;SHT31;53960;51.826;5.850;2023-07-31T13:10:11;19.20;91.36
67054;SHT31;53960;51.826;5.850;2023-07-31T13:12:36;19.17;91.79
67054;SHT31;53960;51.826;5.850;2023-07-31T13:15:03;19.14;91.28
67054;SHT31;53960;51.826;5.850;2023-07-31T13:17:29;19.14;91.76
67054;SHT31;53960;51.826;5.850;2023-07-31T13:19:54;19.15;91.84
67054;SHT31;53960;51.826;5.850;2023-07-31T13:22:19;19.12;91.78
67054;SHT31;53960;51.826;5.850;2023-07-31T13:24:45;19.12;91.60
67054;SHT31;53960;51.826;5.850;2023-07-31T13:27:10;19.10;91.57
67054;SHT31;53960;51.826;5.850;2023-07-31T13:29:35;19.11;91.58
67054;SHT31;53960;51.826;5.850;2023-07-31T13:32:01;19.12;91.90
67054;SHT31;53960;51.826;5.850;2023-07-31T13:34:26;19.11;91.88
67054;SHT31;53960;51.826;5.850;2023-07-31T13:36:54;19.07;91.89
67054;SHT31;53960;51.826;5.850;2023-07-31T13:39:19;19.06;91.98
67054;SHT31;53960;51.826;5.850;2023-07-31T13:41:45;19.10;91.83
67054;SHT31;53960;51.826;5.850;2023-07-31T13:44:10;19.14;91.79
67054;SHT31;53960;51.826;5.850;2023-07-31T13:46:35;19.08;91.85
67054;SHT31;53960;51.826;5.850;2023-07-31T13:49:00;19.24;91.46
67054;SHT31;53960;51.826;5.850;2023-07-31T13:51:26;19.25;91.48
67054;SHT31;53960;51.826;5.850;2023-07-31T13:53:53;19.31;91.62
67054;SHT31;53960;51.826;5.850;2023-07-31T13:56:18;19.35;91.63
67054;SHT31;53960;51.826;5.850;2023-07-31T13:58:43;19.35;91.46
67054;SHT31;53960;51.826;5.850;2023-07-31T14:01:09;19.35;91.70
67054;SHT31;53960;51.826;5.850;2023-07-31T14:03:34;19.30;91.93
67054;SHT31;53960;51.826;5.850;2023-07-31T14:05:59;19.27;91.67
67054;SHT31;53960;51.826;5.850;2023-07-31T14:08:25;19.21;91.56
67054;SHT31;53960;51.826;5.850;2023-07-31T14:10:50;19.21;91.47
67054;SHT31;53960;51.826;5.850;2023-07-31T14:13:16;19.22;91.10
67054;SHT31;53960;51.826;5.850;2023-07-31T14:15:42;19.24;91.24
67054;SHT31;53960;51.826;5.850;2023-07-31T14:18:08;19.22;91.57
67054;SHT31;53960;51.826;5.850;2023-07-31T14:20:33;19.25;91.23
67054;SHT31;53960;51.826;5.850;2023-07-31T14:22:59;19.25;91.13
67054;SHT31;53960;51.826;5.850;2023-07-31T14:25:24;19.22;91.47
67054;SHT31;53960;51.826;5.850;2023-07-31T14:27:50;19.22;91.33
67054;SHT31;53960;51.826;5.850;2023-07-31T14:30:15;19.21;91.37
67054;SHT31;53960;51.826;5.850;2023-07-31T14:32:41;19.20;91.88
67054;SHT31;53960;51.826;5.850;2023-07-31T14:35:07;19.07;92.27
67054;SHT31;53960;51.826;5.850;2023-07-31T14:37:40;19.06;92.68
67054;SHT31;53960;51.826;5.850;2023-07-31T14:40:06;19.06;92.76
67054;SHT31;53960;51.826;5.850;2023-07-31T14:42:32;19.12;92.93
67054;SHT31;53960;51.826;5.850;2023-07-31T14:44:57;19.12;93.24
67054;SHT31;53960;51.826;5.850;2023-07-31T14:47:23;19.12;93.13
67054;SHT31;53960;51.826;5.850;2023-07-31T14:49:48;19.08;93.13
67054;SHT31;53960;51.826;5.850;2023-07-31T14:52:14;19.03;93.40
67054;SHT31;53960;51.826;5.850;2023-07-31T14:54:39;18.97;93.41
67054;SHT31;53960;51.826;5.850;2023-07-31T14:57:05;19.01;93.41
67054;SHT31;53960;51.826;5.850;2023-07-31T14:59:30;19.00;93.41
67054;SHT31;53960;51.826;5.850;2023-07-31T15:01:56;18.97;93.49
67054;SHT31;53960;51.826;5.850;2023-07-31T15:04:21;18.94;93.60
67054;SHT31;53960;51.826;5.850;2023-07-31T15:06:47;18.96;93.55
67054;SHT31;53960;51.826;5.850;2023-07-31T15:09:12;18.94;93.31
67054;SHT31;53960;51.826;5.850;2023-07-31T15:11:38;18.97;93.19
67054;SHT31;53960;51.826;5.850;2023-07-31T15:14:04;18.91;93.00
67054;SHT31;53960;51.826;5.850;2023-07-31T15:16:29;18.91;93.21
67054;SHT31;53960;51.826;5.850;2023-07-31T15:18:56;18.94;92.77
67054;SHT31;53960;51.826;5.850;2023-07-31T15:21:22;18.99;92.82
67054;SHT31;53960;51.826;5.850;2023-07-31T15:23:47;18.94;92.97
67054;SHT31;53960;51.826;5.850;2023-07-31T15:26:12;18.89;93.21
67054;SHT31;53960;51.826;5.850;2023-07-31T15:28:38;18.86;93.61
67054;SHT31;53960;51.826;5.850;2023-07-31T15:31:04;18.84;93.66
67054;SHT31;53960;51.826;5.850;2023-07-31T15:33:29;18.82;93.66
67054;SHT31;53960;51.826;5.850;2023-07-31T15:35:54;18.86;93.72
67054;SHT31;53960;51.826;5.850;2023-07-31T15:38:21;18.84;93.82
67054;SHT31;53960;51.826;5.850;2023-07-31T15:40:48;18.87;93.44
67054;SHT31;53960;51.826;5.850;2023-07-31T15:43:15;18.89;93.59